Shallmar, Maryland
Current Conditions -  °F | °C
As of 10:55 PM on Friday 24 Oct 2014 (Local Time) from K2G4 Reporting Station
Clear Clear  
Wind Chill: 41°   Ceiling: Unl
Heat Index: 45°   Visibility: 10mi
Dew Point: 37°   Wind: 7mph
Humidity: 76%   Direction: 270°W
Pressure: 30.04"   Gusts: NA
Location:  39.4013°N, 79.2213°W
Report Text: K2G4 250255Z AUTO 27006KT 10SM CLR 07/03 A3004 RMK AO1
Loading
Personal Weather Stations






























Interactive Weather Map
Tropical Storm Tracking
New forecast layout! Learn more

10-Day Weather Forecast

Advertisements
Track Severe Weather on mobile